createdAt,value
2022-12-26T00:01:23.804Z,96915.88
2022-12-26T00:04:50.812Z,96913.97
2022-12-26T00:07:13.615Z,96913.38
2022-12-26T00:09:58.619Z,96904.34
2022-12-26T00:12:43.567Z,96902.88
2022-12-26T00:15:28.363Z,96904.53
2022-12-26T00:18:13.147Z,96898.16
2022-12-26T00:20:58.197Z,96903.88
2022-12-26T00:23:43.094Z,96905.88
2022-12-26T00:26:27.988Z,96911.50
2022-12-26T00:29:13.068Z,96911.09
2022-12-26T00:31:57.975Z,96903.91
2022-12-26T00:34:42.813Z,96904.81
2022-12-26T00:37:27.697Z,96904.13
2022-12-26T00:40:12.663Z,96904.25
2022-12-26T00:42:57.444Z,96894.91
2022-12-26T00:45:42.320Z,96900.53
2022-12-26T00:48:27.268Z,96917.09
2022-12-26T00:51:12.050Z,96931.13
2022-12-26T00:53:56.898Z,96926.66
2022-12-26T00:56:41.738Z,96925.66
2022-12-26T00:59:26.685Z,96928.47
2022-12-26T01:02:12.572Z,96922.84
2022-12-26T01:04:57.964Z,96915.88
2022-12-26T01:08:20.404Z,96919.44
2022-12-26T01:10:47.975Z,96926.03
2022-12-26T01:13:32.823Z,96923.78
2022-12-26T01:16:17.779Z,96928.34
2022-12-26T01:19:02.687Z,96920.47
2022-12-26T01:21:47.623Z,96919.09
2022-12-26T01:24:32.489Z,96929.63
2022-12-26T01:27:17.469Z,96924.97
2022-12-26T01:30:02.394Z,96930.06
2022-12-26T01:32:47.157Z,96938.50
2022-12-26T01:35:31.938Z,96935.22
2022-12-26T01:38:16.793Z,96939.41
2022-12-26T01:41:01.672Z,96940.84
2022-12-26T01:43:46.551Z,96938.13
2022-12-26T01:46:31.334Z,96939.88
2022-12-26T01:49:16.147Z,96938.72
2022-12-26T01:52:01.151Z,96924.28
2022-12-26T01:54:46.033Z,96927.25
2022-12-26T01:57:31.029Z,96929.31
2022-12-26T02:00:15.854Z,96928.22
2022-12-26T02:03:00.636Z,96919.41
2022-12-26T02:05:45.514Z,96926.78
2022-12-26T02:08:30.347Z,96926.34
2022-12-26T02:11:15.251Z,96920.03
2022-12-26T02:14:00.111Z,96914.09
2022-12-26T02:16:45.055Z,96919.28
2022-12-26T02:19:29.934Z,96927.91
2022-12-26T02:22:14.758Z,96925.50
2022-12-26T02:24:59.544Z,96942.56
2022-12-26T02:27:44.512Z,96942.56
2022-12-26T02:30:29.325Z,96929.69
2022-12-26T02:33:14.269Z,96941.44
2022-12-26T02:35:59.094Z,96941.56
2022-12-26T02:38:43.942Z,96940.25
2022-12-26T02:41:28.796Z,96945.03
2022-12-26T02:44:13.619Z,96946.09
2022-12-26T02:46:58.529Z,96948.78
2022-12-26T02:49:43.340Z,96940.75
2022-12-26T02:52:28.301Z,96942.38
2022-12-26T02:55:12.950Z,96951.88
2022-12-26T02:57:57.816Z,96937.44
2022-12-26T03:00:42.655Z,96925.44
2022-12-26T03:03:27.497Z,96926.44
2022-12-26T03:06:12.893Z,96924.88
2022-12-26T03:08:57.768Z,96941.06
2022-12-26T03:11:42.761Z,96934.28
2022-12-26T03:14:27.636Z,96940.78
2022-12-26T03:17:12.552Z,96944.09
2022-12-26T03:19:57.419Z,96938.59
2022-12-26T03:22:42.256Z,96941.19
2022-12-26T03:25:27.030Z,96934.09
2022-12-26T03:28:14.015Z,96930.50
2022-12-26T03:30:59.397Z,96929.25
2022-12-26T03:33:44.106Z,96927.97
2022-12-26T03:36:28.903Z,96933.13
2022-12-26T03:39:13.687Z,96944.66
2022-12-26T03:41:58.708Z,96943.81
2022-12-26T03:44:45.158Z,96940.19
2022-12-26T03:47:31.516Z,96948.84
2022-12-26T03:50:16.329Z,96956.34
2022-12-26T03:53:01.180Z,96951.50
2022-12-26T03:55:46.278Z,96941.97
2022-12-26T03:58:31.177Z,96943.47
2022-12-26T04:01:16.222Z,96951.00
2022-12-26T04:04:01.698Z,96949.72
2022-12-26T04:06:46.526Z,96948.66
2022-12-26T04:09:31.525Z,96934.59
2022-12-26T04:12:16.428Z,96936.19
2022-12-26T04:15:01.448Z,96942.25
2022-12-26T04:17:46.264Z,96935.72
2022-12-26T04:20:31.130Z,96930.19
2022-12-26T04:23:15.934Z,96941.19
2022-12-26T04:26:00.761Z,96943.44
2022-12-26T04:28:45.729Z,96951.72
2022-12-26T04:31:30.561Z,96955.03
2022-12-26T04:34:15.573Z,96960.72
2022-12-26T04:37:00.631Z,96954.81
2022-12-26T04:39:45.577Z,96951.84
2022-12-26T04:42:30.312Z,96956.78
2022-12-26T04:45:15.425Z,96950.75
2022-12-26T04:48:00.346Z,96957.09
2022-12-26T04:50:45.296Z,96945.22
2022-12-26T04:53:30.190Z,96955.00
2022-12-26T04:56:15.010Z,96957.28
2022-12-26T04:58:59.905Z,96959.56
2022-12-26T05:01:44.879Z,96963.53
2022-12-26T05:04:30.224Z,96953.16
2022-12-26T05:07:15.087Z,96950.75
2022-12-26T05:10:00.033Z,96955.69
2022-12-26T05:12:44.892Z,96965.56
2022-12-26T05:15:29.581Z,96957.09
2022-12-26T05:18:14.597Z,96974.78
2022-12-26T05:20:59.518Z,96958.81
2022-12-26T05:23:44.592Z,96972.50
2022-12-26T05:26:29.951Z,96966.66
2022-12-26T05:29:15.415Z,96964.25
2022-12-26T05:32:00.335Z,96965.38
2022-12-26T05:34:45.198Z,96970.06
2022-12-26T05:37:30.179Z,96969.50
2022-12-26T05:40:15.149Z,96967.22
2022-12-26T05:43:00.113Z,96963.66
2022-12-26T05:45:45.014Z,96958.81
2022-12-26T05:48:29.973Z,96960.31
2022-12-26T05:51:15.143Z,96973.13
2022-12-26T05:54:00.373Z,96970.38
2022-12-26T05:56:49.293Z,96947.59
2022-12-26T05:59:34.627Z,96969.88
2022-12-26T06:02:19.790Z,96973.63
2022-12-26T06:05:05.116Z,96971.97
2022-12-26T06:07:50.045Z,96968.34
2022-12-26T06:10:34.949Z,96963.22
2022-12-26T06:13:19.844Z,96965.63
2022-12-26T06:16:04.777Z,96971.56
2022-12-26T06:18:49.573Z,96973.66
2022-12-26T06:21:34.415Z,96965.47
2022-12-26T06:24:19.320Z,96975.00
2022-12-26T06:27:04.307Z,96979.97
2022-12-26T06:29:49.228Z,96978.88
2022-12-26T06:32:34.105Z,96987.13
2022-12-26T06:35:18.995Z,96982.13
2022-12-26T06:38:03.916Z,96979.16
2022-12-26T06:40:48.896Z,96975.78
2022-12-26T06:43:33.882Z,96966.03
2022-12-26T06:46:18.935Z,96972.84
2022-12-26T06:49:03.580Z,96982.06
2022-12-26T06:51:48.536Z,96981.53
2022-12-26T06:54:33.345Z,96987.50
2022-12-26T06:57:18.322Z,96988.47
2022-12-26T07:00:03.344Z,96965.75
2022-12-26T07:02:48.485Z,96974.13
2022-12-26T07:05:33.620Z,96991.06
2022-12-26T07:08:18.550Z,96980.38
2022-12-26T07:11:03.387Z,96986.50
2022-12-26T07:13:48.139Z,96982.09
2022-12-26T07:16:32.974Z,96980.69
2022-12-26T07:19:17.721Z,96989.25
2022-12-26T07:22:02.532Z,96990.69
2022-12-26T07:24:47.456Z,96986.72
2022-12-26T07:27:32.415Z,97000.13
2022-12-26T07:30:17.317Z,97001.03
2022-12-26T07:33:02.131Z,96989.81
2022-12-26T07:35:46.981Z,97003.97
2022-12-26T07:38:31.780Z,97000.41
2022-12-26T07:41:16.842Z,96999.94
2022-12-26T07:44:01.728Z,96995.91
2022-12-26T07:46:46.610Z,97009.50
2022-12-26T07:49:31.451Z,97003.41
2022-12-26T07:52:16.348Z,97017.94
2022-12-26T07:55:01.257Z,97032.56
2022-12-26T07:57:48.852Z,97023.91
2022-12-26T08:00:34.349Z,97031.41
2022-12-26T08:03:19.300Z,97034.41
2022-12-26T08:06:04.458Z,97041.97
2022-12-26T08:08:51.374Z,97030.41
2022-12-26T08:11:36.789Z,97029.56
2022-12-26T08:14:21.739Z,97029.81
2022-12-26T08:17:06.645Z,97037.25
2022-12-26T08:19:51.469Z,97033.59
2022-12-26T08:22:36.398Z,97032.25
2022-12-26T08:25:22.272Z,97045.50
2022-12-26T08:28:07.163Z,97046.84
2022-12-26T08:30:51.912Z,97057.97
2022-12-26T08:33:36.899Z,97058.19
2022-12-26T08:36:21.573Z,97051.16
2022-12-26T08:39:06.618Z,97057.88
2022-12-26T08:41:51.573Z,97051.59
2022-12-26T08:44:36.516Z,97064.91
2022-12-26T08:47:21.472Z,97068.16
2022-12-26T08:50:06.293Z,97068.59
2022-12-26T08:52:51.251Z,97072.38
2022-12-26T08:55:36.051Z,97065.56
2022-12-26T08:58:21.024Z,97080.41
2022-12-26T09:01:05.983Z,97071.72
2022-12-26T09:03:51.302Z,97074.56
2022-12-26T09:06:36.170Z,97075.44
2022-12-26T09:09:20.967Z,97073.06
2022-12-26T09:12:05.958Z,97071.50
2022-12-26T09:14:50.872Z,97073.00
2022-12-26T09:17:35.867Z,97072.53
2022-12-26T09:20:20.608Z,97076.28
2022-12-26T09:23:05.610Z,97080.16
2022-12-26T09:25:50.407Z,97095.22
2022-12-26T09:28:35.509Z,97090.56
2022-12-26T09:31:20.466Z,97096.59
2022-12-26T09:34:05.286Z,97088.47
2022-12-26T09:36:50.087Z,97107.16
2022-12-26T09:39:34.973Z,97112.09
2022-12-26T09:42:19.830Z,97130.41
2022-12-26T09:45:04.642Z,97116.88
2022-12-26T09:47:49.541Z,97117.56
2022-12-26T09:50:38.270Z,97126.03
2022-12-26T09:53:26.313Z,97125.44
2022-12-26T09:56:23.780Z,97135.09
2022-12-26T09:59:16.288Z,97154.50
2022-12-26T10:02:01.276Z,97145.56
2022-12-26T10:04:46.659Z,97151.75
2022-12-26T10:07:31.915Z,97142.25
2022-12-26T10:10:16.777Z,97148.38
2022-12-26T10:13:01.724Z,97144.31
2022-12-26T10:15:46.672Z,97131.28
2022-12-26T10:18:31.529Z,97135.00
2022-12-26T10:21:16.334Z,97135.41
2022-12-26T10:24:01.264Z,97135.22
2022-12-26T10:26:46.164Z,97139.59
2022-12-26T10:29:31.065Z,97143.47
2022-12-26T10:32:15.949Z,97136.22
2022-12-26T10:35:00.889Z,97122.28
2022-12-26T10:37:45.885Z,97114.78
2022-12-26T10:40:30.679Z,97127.06
2022-12-26T10:43:15.554Z,97133.44
2022-12-26T10:46:00.462Z,97131.38
2022-12-26T10:48:45.346Z,97126.94
2022-12-26T10:51:30.082Z,97140.97
2022-12-26T10:54:14.975Z,97129.06
2022-12-26T10:56:59.741Z,97127.97
2022-12-26T10:59:44.655Z,97137.50
2022-12-26T11:02:29.663Z,97133.81
2022-12-26T11:05:48.525Z,97127.84
2022-12-26T11:08:19.730Z,97126.53
2022-12-26T11:11:04.694Z,97130.56
2022-12-26T11:13:49.516Z,97133.25
2022-12-26T11:16:34.517Z,97121.69
2022-12-26T11:19:19.659Z,97126.47
2022-12-26T11:22:04.508Z,97119.38
2022-12-26T11:24:49.345Z,97126.03
2022-12-26T11:27:34.257Z,97116.88
2022-12-26T11:30:19.080Z,97105.81
2022-12-26T11:33:08.414Z,97112.25
2022-12-26T11:35:56.908Z,97103.41
2022-12-26T11:38:45.189Z,97094.78
2022-12-26T11:41:30.770Z,97100.97
2022-12-26T11:44:15.663Z,97099.34
2022-12-26T11:47:00.604Z,97101.97
2022-12-26T11:49:45.830Z,97099.88
2022-12-26T11:52:30.776Z,97105.22
2022-12-26T11:55:15.713Z,97101.28
2022-12-26T11:58:00.777Z,97102.16
2022-12-26T12:00:45.555Z,97089.16
2022-12-26T12:03:31.301Z,97096.47
2022-12-26T12:06:16.574Z,97097.44
2022-12-26T12:09:05.820Z,97109.06
2022-12-26T12:11:51.609Z,97102.25
2022-12-26T12:14:36.528Z,97109.81
2022-12-26T12:17:21.467Z,97112.00
2022-12-26T12:20:06.389Z,97095.59
2022-12-26T12:22:51.316Z,97095.72
2022-12-26T12:25:36.053Z,97096.22
2022-12-26T12:28:20.975Z,97100.19
2022-12-26T12:31:05.857Z,97095.44
2022-12-26T12:33:50.619Z,97098.44
2022-12-26T12:36:35.488Z,97093.94
2022-12-26T12:39:20.317Z,97098.06
2022-12-26T12:42:05.220Z,97096.66
2022-12-26T12:44:55.439Z,97093.34
2022-12-26T12:47:41.644Z,97099.09
2022-12-26T12:50:26.500Z,97105.19
2022-12-26T12:53:11.598Z,97098.34
2022-12-26T12:55:56.444Z,97104.22
2022-12-26T12:58:41.833Z,97096.09
2022-12-26T13:01:26.752Z,97093.88
2022-12-26T13:04:12.003Z,97093.59
2022-12-26T13:06:56.948Z,97086.47
2022-12-26T13:09:42.017Z,97076.94
2022-12-26T13:12:26.859Z,97052.50
2022-12-26T13:15:11.594Z,97056.78
2022-12-26T13:17:57.120Z,97065.41
2022-12-26T13:20:41.981Z,97064.63
2022-12-26T13:23:26.873Z,97081.63
2022-12-26T13:26:11.700Z,97068.13
2022-12-26T13:28:56.597Z,97080.00
2022-12-26T13:31:41.674Z,97080.38
2022-12-26T13:34:26.519Z,97076.28
2022-12-26T13:37:11.497Z,97077.50
2022-12-26T13:39:56.342Z,97082.59
2022-12-26T13:42:41.385Z,97069.69
2022-12-26T13:45:26.194Z,97068.69
2022-12-26T13:48:11.165Z,97060.31
2022-12-26T13:50:57.214Z,97059.56
2022-12-26T13:53:42.056Z,97051.63
2022-12-26T13:56:27.073Z,97056.75
2022-12-26T13:59:11.852Z,97072.47
2022-12-26T14:01:59.178Z,97077.88
2022-12-26T14:04:47.864Z,97083.53
2022-12-26T14:07:32.699Z,97086.22
2022-12-26T14:10:17.544Z,97082.75
2022-12-26T14:13:02.433Z,97083.13
2022-12-26T14:15:47.524Z,97083.03
2022-12-26T14:18:32.440Z,97083.88
2022-12-26T14:21:17.217Z,97096.22
2022-12-26T14:24:02.141Z,97099.09
2022-12-26T14:26:46.959Z,97100.66
2022-12-26T14:29:31.893Z,97117.41
2022-12-26T14:32:16.664Z,97109.03
2022-12-26T14:35:01.655Z,97119.13
2022-12-26T14:37:46.511Z,97137.81
2022-12-26T14:40:31.448Z,97138.34
2022-12-26T14:43:16.522Z,97135.69
2022-12-26T14:46:01.433Z,97141.56
2022-12-26T14:48:46.943Z,97126.09
2022-12-26T14:51:31.775Z,97150.06
2022-12-26T14:54:16.747Z,97151.75
2022-12-26T14:57:01.603Z,97150.06
2022-12-26T14:59:46.649Z,97163.81
2022-12-26T15:02:31.593Z,97166.69
2022-12-26T15:05:16.807Z,97165.56
2022-12-26T15:08:01.699Z,97163.38
2022-12-26T15:10:46.543Z,97163.53
2022-12-26T15:13:31.426Z,97158.50
2022-12-26T15:16:16.382Z,97162.13
2022-12-26T15:19:01.481Z,97169.31
2022-12-26T15:21:46.400Z,97166.34
2022-12-26T15:25:08.677Z,97177.13
2022-12-26T15:27:36.502Z,97174.22
2022-12-26T15:30:21.388Z,97160.41
2022-12-26T15:33:06.212Z,97159.97
2022-12-26T15:35:51.014Z,97178.97
2022-12-26T15:38:35.990Z,97168.56
2022-12-26T15:41:21.029Z,97178.91
2022-12-26T15:44:05.684Z,97166.31
2022-12-26T15:46:50.581Z,97182.75
2022-12-26T15:49:35.479Z,97183.41
2022-12-26T15:52:20.552Z,97183.41
2022-12-26T15:55:05.295Z,97185.13
2022-12-26T15:57:50.089Z,97188.66
2022-12-26T16:00:35.020Z,97184.59
2022-12-26T16:03:20.135Z,97200.03
2022-12-26T16:06:04.946Z,97191.03
2022-12-26T16:08:49.827Z,97199.84
2022-12-26T16:11:34.664Z,97208.91
2022-12-26T16:14:19.567Z,97206.25
2022-12-26T16:17:04.474Z,97210.69
2022-12-26T16:19:49.328Z,97211.84
2022-12-26T16:22:34.296Z,97233.66
2022-12-26T16:25:19.117Z,97231.97
2022-12-26T16:28:04.088Z,97234.25
2022-12-26T16:30:49.110Z,97231.09
2022-12-26T16:33:33.967Z,97237.69
2022-12-26T16:36:19.110Z,97232.00
2022-12-26T16:39:03.944Z,97240.56
2022-12-26T16:41:48.807Z,97251.44
2022-12-26T16:44:33.719Z,97264.38
2022-12-26T16:47:18.624Z,97269.28
2022-12-26T16:50:03.483Z,97275.38
2022-12-26T16:52:48.341Z,97269.84
2022-12-26T16:55:33.256Z,97275.75
2022-12-26T16:58:18.235Z,97272.75
2022-12-26T17:01:03.138Z,97279.59
2022-12-26T17:03:47.941Z,97289.13
2022-12-26T17:06:32.975Z,97295.97
2022-12-26T17:09:18.218Z,97299.16
2022-12-26T17:12:03.075Z,97296.69
2022-12-26T17:14:47.931Z,97300.75
2022-12-26T17:17:32.952Z,97310.19
2022-12-26T17:20:17.822Z,97318.56
2022-12-26T17:23:02.744Z,97325.28
2022-12-26T17:25:50.891Z,97308.38
2022-12-26T17:28:35.939Z,97323.06
2022-12-26T17:31:20.926Z,97330.19
2022-12-26T17:34:05.763Z,97324.88
2022-12-26T17:37:18.568Z,97323.72
2022-12-26T17:40:00.815Z,97319.66
2022-12-26T17:42:47.988Z,97308.16
2022-12-26T17:45:32.815Z,97309.56
2022-12-26T17:48:17.579Z,97319.56
2022-12-26T17:51:02.517Z,97299.16
2022-12-26T17:53:47.302Z,97295.09
2022-12-26T17:56:32.273Z,97308.31
2022-12-26T17:59:17.209Z,97300.63
2022-12-26T18:02:02.294Z,97329.41
2022-12-26T18:04:47.466Z,97338.69
2022-12-26T18:07:32.288Z,97342.19
2022-12-26T18:10:17.178Z,97346.44
2022-12-26T18:13:02.004Z,97358.03
2022-12-26T18:15:47.777Z,97364.78
2022-12-26T18:18:33.143Z,97363.34
2022-12-26T18:21:18.113Z,97363.91
2022-12-26T18:24:02.943Z,97358.88
2022-12-26T18:26:47.846Z,97358.47
2022-12-26T18:29:32.891Z,97361.03
2022-12-26T18:32:18.218Z,97358.25
2022-12-26T18:35:03.248Z,97360.88
2022-12-26T18:37:48.165Z,97363.94
2022-12-26T18:40:33.142Z,97365.81
2022-12-26T18:43:18.122Z,97361.81
2022-12-26T18:46:03.532Z,97360.28
2022-12-26T18:48:48.701Z,97353.00
2022-12-26T18:51:33.597Z,97350.56
2022-12-26T18:54:18.936Z,97358.56
2022-12-26T18:57:04.268Z,97365.47
2022-12-26T18:59:49.258Z,97368.97
2022-12-26T19:02:34.216Z,97383.00
2022-12-26T19:05:19.217Z,97382.28
2022-12-26T19:08:04.021Z,97392.72
2022-12-26T19:10:48.826Z,97390.53
2022-12-26T19:13:33.662Z,97386.34
2022-12-26T19:16:18.669Z,97390.84
2022-12-26T19:19:03.541Z,97384.59
2022-12-26T19:21:48.342Z,97384.41
2022-12-26T19:24:33.085Z,97385.13
2022-12-26T19:27:17.789Z,97387.38
2022-12-26T19:30:02.609Z,97391.38
2022-12-26T19:32:47.468Z,97385.50
2022-12-26T19:35:32.290Z,97385.38
2022-12-26T19:38:17.216Z,97384.44
2022-12-26T19:41:02.080Z,97391.06
2022-12-26T19:43:47.005Z,97405.88
2022-12-26T19:46:31.865Z,97404.09
2022-12-26T19:49:16.866Z,97408.28
2022-12-26T19:52:01.790Z,97401.06
2022-12-26T19:54:46.577Z,97401.69
2022-12-26T19:57:31.476Z,97404.34
2022-12-26T20:00:16.206Z,97399.50
2022-12-26T20:03:01.088Z,97399.91
2022-12-26T20:05:45.972Z,97405.16
2022-12-26T20:08:30.991Z,97415.72
2022-12-26T20:11:15.745Z,97414.84
2022-12-26T20:14:00.745Z,97412.31
2022-12-26T20:17:05.118Z,97425.78
2022-12-26T20:19:50.719Z,97428.28
2022-12-26T20:22:35.642Z,97428.56
2022-12-26T20:25:20.508Z,97429.78
2022-12-26T20:28:05.486Z,97430.06
2022-12-26T20:30:50.243Z,97432.94
2022-12-26T20:33:35.005Z,97427.22
2022-12-26T20:36:19.701Z,97439.34
2022-12-26T20:39:04.561Z,97446.38
2022-12-26T20:41:49.268Z,97440.97
2022-12-26T20:44:34.220Z,97450.19
2022-12-26T20:47:19.225Z,97457.06
2022-12-26T20:50:04.039Z,97460.78
2022-12-26T20:52:49.119Z,97460.59
2022-12-26T20:55:34.244Z,97451.38
2022-12-26T20:58:25.065Z,97459.84
2022-12-26T21:01:10.665Z,97457.00
2022-12-26T21:03:55.865Z,97448.47
2022-12-26T21:06:40.678Z,97451.88
2022-12-26T21:09:25.459Z,97460.47
2022-12-26T21:12:10.436Z,97461.97
2022-12-26T21:14:55.464Z,97468.41
2022-12-26T21:17:40.817Z,97452.78
2022-12-26T21:20:25.665Z,97454.94
2022-12-26T21:23:10.516Z,97466.19
2022-12-26T21:25:55.484Z,97463.44
2022-12-26T21:28:40.346Z,97470.72
2022-12-26T21:31:25.245Z,97478.19
2022-12-26T21:34:10.126Z,97471.25
2022-12-26T21:36:55.144Z,97473.16
2022-12-26T21:39:40.137Z,97477.00
2022-12-26T21:42:24.923Z,97479.59
2022-12-26T21:45:09.960Z,97506.47
2022-12-26T21:47:54.805Z,97503.19
2022-12-26T21:50:39.726Z,97514.19
2022-12-26T21:53:24.568Z,97527.06
2022-12-26T21:56:09.537Z,97534.75
2022-12-26T21:58:54.301Z,97525.66
2022-12-26T22:01:39.389Z,97526.47
2022-12-26T22:04:26.062Z,97528.19
2022-12-26T22:07:10.946Z,97534.63
2022-12-26T22:09:55.887Z,97540.66
2022-12-26T22:12:40.696Z,97542.59
2022-12-26T22:15:25.693Z,97551.66
2022-12-26T22:18:10.516Z,97546.47
2022-12-26T22:20:55.275Z,97561.94
2022-12-26T22:23:40.004Z,97556.13
2022-12-26T22:26:24.751Z,97567.63
2022-12-26T22:29:09.762Z,97559.78
2022-12-26T22:31:54.612Z,97555.44
2022-12-26T22:34:39.473Z,97556.69
2022-12-26T22:37:24.531Z,97556.28
2022-12-26T22:40:09.412Z,97565.28
2022-12-26T22:42:54.359Z,97563.13
2022-12-26T22:45:39.300Z,97569.47
2022-12-26T22:48:24.271Z,97568.09
2022-12-26T22:51:09.023Z,97569.72
2022-12-26T22:53:54.026Z,97566.78
2022-12-26T22:56:38.919Z,97573.00
2022-12-26T22:59:58.085Z,97579.09
2022-12-26T23:02:29.085Z,97570.34
2022-12-26T23:05:14.111Z,97579.31
2022-12-26T23:07:59.023Z,97574.81
2022-12-26T23:10:43.741Z,97570.94
2022-12-26T23:13:28.728Z,97576.94
2022-12-26T23:16:13.604Z,97572.84
2022-12-26T23:18:58.363Z,97568.16
2022-12-26T23:21:43.367Z,97569.44
2022-12-26T23:24:28.052Z,97570.91
2022-12-26T23:27:12.928Z,97576.75
2022-12-26T23:29:57.781Z,97568.16
2022-12-26T23:32:42.786Z,97563.03
2022-12-26T23:35:27.661Z,97564.13
2022-12-26T23:38:12.610Z,97564.25
2022-12-26T23:40:57.469Z,97565.63
2022-12-26T23:43:42.303Z,97565.19
2022-12-26T23:46:27.264Z,97566.63
2022-12-26T23:49:12.206Z,97562.53
2022-12-26T23:51:57.028Z,97561.44
2022-12-26T23:54:41.720Z,97557.28
2022-12-26T23:57:26.771Z,97568.13
